Main page
METAR-TAF:

METAR-TAF

Airports :

Angoulême, France

Angoulême – Cognac International Airport

latitude: 45-43-46N, longitude: 00-13-08E, elevation: 132 m

Current weather observation

The report was made 39 minutes ago, at 22:30 UTC
Calm wind
Temperature 18°C
Humidity 83%
Pressure 1018 hPa
Visibility 10 km or more
no clouds below 1500 m and no cumulonimbus

METAR: LFBU 232230Z AUTO 00000KT CAVOK 18/15 Q1018

Time: 01:09 (23:09 UTC)

Forecast

The report was made 6 hours and 9 minutes ago, at 17:00 UTC
Forecast valid from 23 at 18 UTC to 24 at 18 UTC
Wind 10 kt from the Northwest
Visibility 10 km or more
no clouds below 1500 m and no cumulonimbus
Becoming
from 23 at 22 UTC to 23 at 24 UTC
Wind 2 kt from variable directions

TAF: LFBU 231700Z 2318/2418 31010KT CAVOK BECMG 2322/2324 VRB02KT

Weather observations and forecasts of more than 4000 airports (METAR and TAF reports).

The available stations are represented by yellow and red dots on the map.

Hover mouse over dot to see the name of the station.

Then click to see weather observations and forecasts.

To change the map : click on the green buttons with a black cross to zoom in, on the green button with a dash to zoom out, or on the green arrows for adjacent maps.


METAR-TAF: